Time;durP1;ratioP1;P1;durP2;ratioP2;P2;SDS_P1;SDS_P2;PMS_P1;PMS_P2;Temp;Humidity;BMP_temperature;BMP_pressure;BME280_temperature;BME280_humidity;BME280_pressure;Samples;Min_cycle;Max_cycle;Signal;HPM_P1;HPM_P2
2022/03/09 00:00:10;;;;;;;1.90;1.80;;;21.70;31.20;;;;;;4995207;28;20045;-59
2022/03/09 00:02:36;;;;;;;1.85;1.70;;;21.70;31.10;;;;;;4990952;28;20054;-59
2022/03/09 00:05:02;;;;;;;2.00;1.90;;;21.70;31.20;;;;;;4994462;28;20099;-60
2022/03/09 00:07:28;;;;;;;2.63;2.03;;;21.70;31.20;;;;;;4995113;28;20049;-60
2022/03/09 00:09:54;;;;;;;2.22;2.00;;;21.70;31.20;;;;;;4994346;28;20461;-59
2022/03/09 00:12:20;;;;;;;3.13;2.00;;;21.60;31.20;;;;;;4991213;28;20052;-60
2022/03/09 00:14:46;;;;;;;1.92;1.83;;;21.60;31.20;;;;;;4993891;28;20583;-59
2022/03/09 00:17:12;;;;;;;2.22;1.95;;;21.60;31.20;;;;;;4990403;28;20935;-59
2022/03/09 00:19:37;;;;;;;1.98;1.88;;;21.50;31.00;;;;;;4997186;28;20512;-59
2022/03/09 00:22:03;;;;;;;2.17;1.92;;;21.50;31.00;;;;;;4993709;28;20443;-59
2022/03/09 00:24:29;;;;;;;1.88;1.77;;;21.50;31.00;;;;;;4989471;28;20124;-59
2022/03/09 00:26:55;;;;;;;2.30;2.10;;;21.50;31.00;;;;;;4994471;28;20097;-59
2022/03/09 00:29:20;;;;;;;2.20;2.00;;;21.50;31.00;;;;;;4992213;28;20054;-59
2022/03/09 00:31:46;;;;;;;2.05;1.90;;;21.40;31.00;;;;;;4990607;28;20152;-60
2022/03/09 00:34:11;;;;;;;2.17;1.95;;;21.40;31.10;;;;;;4993529;28;20054;-60
2022/03/09 00:36:37;;;;;;;2.38;2.10;;;21.40;31.00;;;;;;4993275;28;20046;-59
2022/03/09 00:39:03;;;;;;;2.17;1.98;;;21.40;31.00;;;;;;4994101;28;20050;-59
2022/03/09 00:41:29;;;;;;;2.40;2.20;;;21.40;31.00;;;;;;4991001;28;20081;-59
2022/03/09 00:43:54;;;;;;;2.42;2.20;;;21.40;31.00;;;;;;4990503;28;20046;-60
2022/03/09 00:46:20;;;;;;;2.30;2.10;;;21.40;31.00;;;;;;4991819;28;20050;-60
2022/03/09 00:48:45;;;;;;;2.60;2.00;;;21.30;30.90;;;;;;4992064;28;20057;-60
2022/03/09 00:51:11;;;;;;;2.35;2.25;;;21.30;31.00;;;;;;4992579;28;20128;-59
2022/03/09 00:53:38;;;;;;;2.92;2.00;;;21.30;30.90;;;;;;4993803;28;20633;-59
2022/03/09 00:56:04;;;;;;;1.98;1.88;;;21.30;30.90;;;;;;4991447;28;20545;-59
2022/03/09 00:58:30;;;;;;;3.28;2.50;;;21.20;30.90;;;;;;4989977;28;20077;-60
2022/03/09 01:00:55;;;;;;;2.53;2.33;;;21.20;30.90;;;;;;4994195;28;20215;-59
2022/03/09 01:03:21;;;;;;;2.42;2.20;;;21.20;30.90;;;;;;4992866;28;20157;-59
2022/03/09 01:05:46;;;;;;;2.60;2.40;;;21.20;30.90;;;;;;4994308;28;20045;-59
2022/03/09 01:08:12;;;;;;;2.42;2.28;;;21.10;30.80;;;;;;4992303;28;20046;-59
2022/03/09 01:10:37;;;;;;;2.80;2.22;;;21.10;30.80;;;;;;4994482;28;20050;-60
2022/03/09 01:13:03;;;;;;;2.67;2.30;;;21.10;30.80;;;;;;4989286;28;20850;-59
2022/03/09 01:15:29;;;;;;;2.72;2.50;;;21.10;30.80;;;;;;4994856;28;20042;-59
2022/03/09 01:17:54;;;;;;;2.38;2.17;;;21.10;30.90;;;;;;5005909;28;20050;-60
2022/03/09 01:20:20;;;;;;;2.30;2.10;;;21.10;30.80;;;;;;4993844;28;20050;-59
2022/03/09 01:22:46;;;;;;;2.53;2.28;;;21.10;30.90;;;;;;4990814;28;20103;-59
2022/03/09 01:25:11;;;;;;;2.95;2.60;;;21.10;30.80;;;;;;4995187;28;20054;-60
2022/03/09 01:27:37;;;;;;;2.72;2.50;;;21.00;30.70;;;;;;4990368;28;20043;-59
2022/03/09 01:30:04;;;;;;;3.20;2.40;;;21.00;30.80;;;;;;4989641;28;20050;-60
2022/03/09 01:32:30;;;;;;;3.00;2.65;;;21.00;30.70;;;;;;4990745;28;20058;-60
2022/03/09 01:34:55;;;;;;;2.28;2.13;;;21.00;30.70;;;;;;4989659;28;20056;-60
2022/03/09 01:37:21;;;;;;;2.92;2.63;;;21.00;30.70;;;;;;4996923;28;20696;-59
2022/03/09 01:39:46;;;;;;;3.65;2.53;;;21.00;30.80;;;;;;4996077;28;20042;-60
2022/03/09 01:42:12;;;;;;;2.65;2.45;;;21.00;30.70;;;;;;4991824;28;20046;-59
2022/03/09 01:44:38;;;;;;;2.78;2.58;;;20.90;30.70;;;;;;4995571;28;20058;-60
2022/03/09 01:47:04;;;;;;;2.60;2.40;;;20.90;30.70;;;;;;4997757;28;20043;-60
2022/03/09 01:49:30;;;;;;;2.80;2.60;;;20.90;30.70;;;;;;4994675;28;20129;-60
2022/03/09 01:51:57;;;;;;;2.70;2.50;;;20.90;30.70;;;;;;4996123;28;20481;-59
2022/03/09 01:54:24;;;;;;;2.92;2.72;;;20.80;30.60;;;;;;5007136;28;20078;-59
2022/03/09 01:56:50;;;;;;;2.58;2.38;;;20.90;30.70;;;;;;4995814;28;20053;-59
2022/03/09 01:59:16;;;;;;;3.15;2.85;;;20.90;30.80;;;;;;4998701;28;20050;-59
2022/03/09 02:01:44;;;;;;;2.85;2.65;;;20.90;30.70;;;;;;4996130;28;20045;-60
2022/03/09 02:04:09;;;;;;;2.92;2.65;;;20.80;30.70;;;;;;4994251;28;20050;-60
2022/03/09 02:06:36;;;;;;;2.88;2.65;;;20.80;30.60;;;;;;4996053;28;20135;-59
2022/03/09 02:11:48;;;;;;;2.88;2.67;;;20.80;30.60;;;;;;4994749;28;20157;-59
2022/03/09 02:14:33;;;;;;;3.03;2.42;;;20.80;30.70;;;;;;4994144;28;20053;-59
2022/03/09 02:17:02;;;;;;;3.03;2.63;;;20.70;30.50;;;;;;4994023;28;20064;-59
2022/03/09 02:19:28;;;;;;;3.25;2.95;;;20.70;30.60;;;;;;4995460;28;20070;-59
2022/03/09 02:22:20;;;;;;;3.00;2.70;;;20.70;30.60;;;;;;4995961;28;20113;-59
2022/03/09 02:24:50;;;;;;;2.97;2.65;;;20.70;30.50;;;;;;4989744;28;20057;-59
2022/03/09 02:27:17;;;;;;;2.75;2.55;;;20.70;30.60;;;;;;4995618;28;20053;-60
2022/03/09 02:29:43;;;;;;;2.70;2.47;;;20.60;30.60;;;;;;4995264;28;20125;-59
2022/03/09 02:32:09;;;;;;;2.50;2.30;;;20.60;30.60;;;;;;4995695;28;20175;-59
2022/03/09 02:34:35;;;;;;;3.20;2.90;;;20.60;30.60;;;;;;4995354;28;20092;-59
2022/03/09 02:37:00;;;;;;;2.80;2.60;;;20.60;30.60;;;;;;4990820;28;20593;-59
2022/03/09 02:39:26;;;;;;;3.20;3.00;;;20.60;30.50;;;;;;4997555;28;20054;-59
2022/03/09 02:41:52;;;;;;;2.97;2.72;;;20.60;30.60;;;;;;4993207;28;20605;-59
2022/03/09 02:44:17;;;;;;;2.53;2.33;;;20.60;30.60;;;;;;4995026;28;20042;-59
2022/03/09 02:46:43;;;;;;;3.17;2.88;;;20.60;30.60;;;;;;4991521;28;20050;-59
2022/03/09 02:49:09;;;;;;;2.97;2.67;;;20.60;30.60;;;;;;4993125;28;20093;-59
2022/03/09 02:51:34;;;;;;;3.20;2.88;;;20.60;30.50;;;;;;4994036;28;20057;-60
2022/03/09 02:54:00;;;;;;;2.90;2.70;;;20.50;30.50;;;;;;4997605;28;20485;-59
2022/03/09 02:56:26;;;;;;;3.30;2.92;;;20.50;30.50;;;;;;4994039;28;20089;-61
2022/03/09 02:58:52;;;;;;;3.13;2.83;;;20.50;30.50;;;;;;4994739;28;20137;-60
2022/03/09 03:01:17;;;;;;;3.17;2.83;;;20.50;30.50;;;;;;4990566;28;20038;-59
2022/03/09 03:03:44;;;;;;;3.45;3.15;;;20.50;30.50;;;;;;4991503;28;20054;-59
2022/03/09 03:06:11;;;;;;;2.67;2.47;;;20.50;30.50;;;;;;4989182;28;20050;-60
2022/03/09 03:08:40;;;;;;;2.90;2.47;;;20.50;30.50;;;;;;4991550;28;20115;-59
2022/03/09 03:11:08;;;;;;;2.78;2.58;;;20.40;30.40;;;;;;4997499;28;20120;-59
2022/03/09 03:13:37;;;;;;;2.70;2.50;;;20.40;30.40;;;;;;4993103;28;20471;-59
2022/03/09 03:16:03;;;;;;;3.47;2.72;;;20.40;30.40;;;;;;4995366;28;20041;-59
2022/03/09 03:18:29;;;;;;;2.75;2.55;;;20.40;30.50;;;;;;4996544;28;20052;-59
2022/03/09 03:20:54;;;;;;;2.92;2.72;;;20.40;30.40;;;;;;4992044;28;20042;-60
2022/03/09 03:23:28;;;;;;;2.72;2.50;;;20.40;30.50;;;;;;4994610;28;20045;-60
2022/03/09 03:25:54;;;;;;;2.85;2.65;;;20.40;30.40;;;;;;4995437;28;20073;-59
2022/03/09 03:28:21;;;;;;;2.78;2.58;;;20.40;30.40;;;;;;4994056;28;20502;-60
2022/03/09 03:30:46;;;;;;;2.60;2.40;;;20.40;30.50;;;;;;4994432;28;20172;-61
2022/03/09 03:33:14;;;;;;;3.13;2.85;;;20.40;30.40;;;;;;4992372;28;20132;-60
2022/03/09 03:35:40;;;;;;;2.58;2.33;;;20.40;30.40;;;;;;4995911;28;20053;-59
2022/03/09 03:38:05;;;;;;;3.63;2.60;;;20.30;30.50;;;;;;4994424;28;20038;-59
2022/03/09 03:40:31;;;;;;;2.72;2.53;;;20.30;30.40;;;;;;4994492;28;20375;-59
2022/03/09 03:42:57;;;;;;;2.85;2.55;;;20.30;30.40;;;;;;4994611;28;20053;-59
2022/03/09 03:45:23;;;;;;;2.88;2.67;;;20.30;30.40;;;;;;4995893;28;20056;-59
2022/03/09 03:47:48;;;;;;;3.47;2.63;;;20.30;30.40;;;;;;4990967;28;20088;-59
2022/03/09 03:50:14;;;;;;;3.83;2.67;;;20.30;30.40;;;;;;4995124;28;20587;-59
2022/03/09 03:52:39;;;;;;;2.83;2.63;;;20.30;30.40;;;;;;4994872;28;20041;-59
2022/03/09 03:55:05;;;;;;;3.05;2.75;;;20.20;30.30;;;;;;4996431;28;20661;-59
2022/03/09 03:57:31;;;;;;;2.80;2.60;;;20.20;30.30;;;;;;4992195;28;20742;-60
2022/03/09 03:59:57;;;;;;;3.17;2.88;;;20.20;30.30;;;;;;4992733;28;20066;-59
2022/03/09 04:02:22;;;;;;;3.00;2.80;;;20.20;30.30;;;;;;4991548;28;20117;-59
2022/03/09 04:04:50;;;;;;;2.70;2.50;;;20.20;30.30;;;;;;4993812;28;20057;-59
2022/03/09 04:07:16;;;;;;;3.00;2.80;;;20.20;30.30;;;;;;4993601;28;20059;-60
2022/03/09 04:09:42;;;;;;;4.70;3.25;;;20.20;30.30;;;;;;4992966;28;20042;-59
2022/03/09 04:12:08;;;;;;;3.22;2.80;;;20.20;30.30;;;;;;4979737;28;20054;-60
2022/03/09 04:14:34;;;;;;;3.22;2.92;;;20.20;30.30;;;;;;4993650;28;20056;-59
2022/03/09 04:17:00;;;;;;;3.40;3.10;;;20.20;30.20;;;;;;4991832;28;20397;-59
2022/03/09 04:19:25;;;;;;;3.10;2.90;;;20.10;30.30;;;;;;4993063;28;20223;-59
2022/03/09 04:21:51;;;;;;;4.18;2.88;;;20.10;30.20;;;;;;4994152;28;20849;-59
2022/03/09 04:24:17;;;;;;;2.75;2.55;;;20.10;30.20;;;;;;4993501;28;20040;-59
2022/03/09 04:26:42;;;;;;;3.35;3.05;;;20.10;30.20;;;;;;4989942;28;20053;-60
2022/03/09 04:29:08;;;;;;;3.20;2.90;;;20.10;30.30;;;;;;4988354;28;20383;-59
2022/03/09 04:31:33;;;;;;;2.83;2.63;;;20.10;30.20;;;;;;4992484;28;20041;-59
2022/03/09 04:33:59;;;;;;;2.67;2.40;;;20.10;30.20;;;;;;4994402;28;20041;-59
2022/03/09 04:36:25;;;;;;;2.90;2.70;;;20.10;30.30;;;;;;4994299;28;20085;-60
2022/03/09 04:38:50;;;;;;;3.53;2.80;;;20.10;30.20;;;;;;4993298;28;20116;-59
2022/03/09 04:41:16;;;;;;;3.40;3.10;;;20.10;30.20;;;;;;4993119;28;20549;-59
2022/03/09 04:43:41;;;;;;;3.70;2.90;;;20.00;30.20;;;;;;4990959;28;20059;-59
2022/03/09 04:46:07;;;;;;;3.20;2.97;;;20.00;30.20;;;;;;4993009;28;20073;-60
2022/03/09 04:48:32;;;;;;;3.17;2.83;;;20.00;30.10;;;;;;4993823;28;20058;-59
2022/03/09 04:51:00;;;;;;;3.35;3.05;;;20.00;30.10;;;;;;4992627;28;20060;-60
2022/03/09 04:53:25;;;;;;;3.85;2.90;;;20.00;30.20;;;;;;4992964;28;20056;-60
2022/03/09 04:55:51;;;;;;;3.03;2.72;;;20.00;30.20;;;;;;4993894;28;20468;-60
2022/03/09 04:58:17;;;;;;;3.13;2.83;;;20.00;30.20;;;;;;4990888;28;20050;-60
2022/03/09 05:00:42;;;;;;;3.22;2.90;;;20.00;30.10;;;;;;4992105;28;20136;-59
2022/03/09 05:03:08;;;;;;;2.80;2.60;;;20.00;30.10;;;;;;4991742;28;20522;-59
2022/03/09 05:05:33;;;;;;;3.30;3.00;;;20.00;30.20;;;;;;4989137;28;20054;-59
2022/03/09 05:07:59;;;;;;;2.90;2.70;;;20.00;30.20;;;;;;4992030;28;20054;-59
2022/03/09 05:10:24;;;;;;;2.83;2.63;;;20.00;30.10;;;;;;4991878;28;20929;-59
2022/03/09 05:12:50;;;;;;;3.17;2.88;;;19.90;30.10;;;;;;4989126;28;20501;-59
2022/03/09 05:15:15;;;;;;;3.15;2.78;;;19.90;30.10;;;;;;4993455;28;20595;-59
2022/03/09 05:17:42;;;;;;;3.35;2.67;;;19.90;30.10;;;;;;4992001;28;20073;-59
2022/03/09 05:20:09;;;;;;;3.35;2.90;;;19.90;30.00;;;;;;4992629;28;20065;-60
2022/03/09 05:22:35;;;;;;;2.58;2.35;;;19.90;30.00;;;;;;4992240;28;20037;-59
2022/03/09 05:25:01;;;;;;;3.45;3.00;;;19.90;30.10;;;;;;4994919;28;20053;-59
2022/03/09 05:27:27;;;;;;;3.63;2.75;;;19.90;30.10;;;;;;4991351;28;20538;-59
2022/03/09 05:29:53;;;;;;;3.10;2.72;;;19.90;30.00;;;;;;4994014;28;20168;-59
2022/03/09 05:32:19;;;;;;;3.20;2.90;;;19.90;30.00;;;;;;4994542;28;20049;-59
2022/03/09 05:34:46;;;;;;;2.78;2.58;;;19.90;30.10;;;;;;4992551;28;20381;-59
2022/03/09 05:37:12;;;;;;;2.80;2.60;;;19.90;30.10;;;;;;4993471;28;20058;-59
2022/03/09 05:39:38;;;;;;;2.60;2.40;;;19.90;30.00;;;;;;4989365;28;20057;-59
2022/03/09 05:42:04;;;;;;;3.00;2.80;;;19.80;30.00;;;;;;4991939;28;20402;-59
2022/03/09 05:44:30;;;;;;;3.88;2.88;;;19.90;30.00;;;;;;4976605;28;20046;-59
2022/03/09 05:46:57;;;;;;;3.22;2.53;;;19.90;30.00;;;;;;4977136;28;20048;-58
2022/03/09 05:49:22;;;;;;;2.90;2.70;;;19.90;30.00;;;;;;4993340;28;20058;-59
2022/03/09 05:51:49;;;;;;;3.10;2.80;;;19.90;30.00;;;;;;4994897;28;20046;-59
2022/03/09 05:54:15;;;;;;;3.08;2.78;;;19.90;30.00;;;;;;4988440;28;20418;-59
2022/03/09 05:56:41;;;;;;;2.80;2.60;;;19.90;30.00;;;;;;4990890;28;20046;-59
2022/03/09 05:59:07;;;;;;;2.78;2.53;;;19.90;30.00;;;;;;4991052;28;20063;-59
2022/03/09 06:01:32;;;;;;;3.13;2.85;;;19.90;30.00;;;;;;4994107;28;20490;-59
2022/03/09 06:03:58;;;;;;;3.42;3.13;;;19.90;30.00;;;;;;4993155;28;20050;-59
2022/03/09 06:06:23;;;;;;;3.13;2.60;;;19.90;30.00;;;;;;4991290;28;20054;-59
2022/03/09 06:08:49;;;;;;;2.80;2.60;;;19.90;30.00;;;;;;4990584;28;20093;-59
2022/03/09 06:11:14;;;;;;;3.30;2.90;;;19.90;30.00;;;;;;4992716;28;20119;-59
2022/03/09 06:13:40;;;;;;;2.85;2.65;;;19.90;30.00;;;;;;4990428;28;20058;-60
2022/03/09 06:16:06;;;;;;;3.97;2.72;;;19.90;30.00;;;;;;4991127;28;20046;-59
2022/03/09 06:18:32;;;;;;;3.63;2.53;;;19.90;30.00;;;;;;4990341;28;20489;-60
2022/03/09 06:20:57;;;;;;;3.80;2.55;;;19.90;30.00;;;;;;4994629;28;20203;-59
2022/03/09 06:23:23;;;;;;;3.08;2.78;;;19.90;30.00;;;;;;4992704;28;20129;-59
2022/03/09 06:25:49;;;;;;;2.97;2.67;;;19.90;30.00;;;;;;4996126;28;20042;-59
2022/03/09 06:28:15;;;;;;;2.60;2.40;;;19.90;30.00;;;;;;4994868;28;20054;-59
2022/03/09 06:30:40;;;;;;;3.45;3.15;;;19.90;30.00;;;;;;4996060;28;20046;-59
2022/03/09 06:33:06;;;;;;;3.10;2.90;;;19.90;30.30;;;;;;4996451;28;20050;-59
2022/03/09 06:35:32;;;;;;;3.50;2.65;;;19.90;30.20;;;;;;4989691;28;20081;-60
2022/03/09 06:37:58;;;;;;;3.92;2.80;;;20.00;30.40;;;;;;4995715;28;20046;-59
2022/03/09 06:40:25;;;;;;;3.47;2.70;;;20.00;30.30;;;;;;4995243;28;20046;-59
2022/03/09 06:42:51;;;;;;;3.50;3.13;;;20.00;30.30;;;;;;4995809;28;20046;-60
2022/03/09 06:45:16;;;;;;;6.63;3.20;;;19.90;30.40;;;;;;4997201;28;20049;-59
2022/03/09 06:47:43;;;;;;;3.30;3.00;;;20.00;30.40;;;;;;4993463;28;20038;-59
2022/03/09 06:50:10;;;;;;;3.28;3.05;;;20.00;30.60;;;;;;4995045;28;20052;-60
2022/03/09 06:52:37;;;;;;;3.65;3.35;;;20.00;30.70;;;;;;4993455;28;20046;-60
2022/03/09 06:55:03;;;;;;;4.07;3.17;;;20.00;30.70;;;;;;4993193;28;20196;-61
2022/03/09 06:57:31;;;;;;;3.33;3.03;;;20.00;30.70;;;;;;4994485;28;20137;-59
2022/03/09 06:59:56;;;;;;;3.38;2.85;;;20.00;31.00;;;;;;4994968;28;20104;-60
2022/03/09 07:02:22;;;;;;;3.28;2.83;;;20.00;30.90;;;;;;4997282;28;20050;-59
2022/03/09 07:04:48;;;;;;;3.08;2.72;;;20.00;30.90;;;;;;4994197;28;20040;-59
2022/03/09 07:07:14;;;;;;;3.08;2.78;;;20.00;31.00;;;;;;4993663;28;20058;-59
2022/03/09 07:09:40;;;;;;;3.35;3.05;;;20.10;31.10;;;;;;4996188;28;20049;-59
2022/03/09 07:12:06;;;;;;;3.88;3.25;;;20.10;31.00;;;;;;4994733;28;20045;-58
2022/03/09 07:14:31;;;;;;;3.45;3.05;;;20.10;30.90;;;;;;4991960;28;20053;-58
2022/03/09 07:16:57;;;;;;;3.13;2.83;;;20.10;31.00;;;;;;4993063;28;20456;-59
2022/03/09 07:19:23;;;;;;;3.35;3.05;;;20.10;30.90;;;;;;4992528;28;20045;-58
2022/03/09 07:21:48;;;;;;;4.32;3.10;;;20.10;30.80;;;;;;4995703;28;20410;-58
2022/03/09 07:24:14;;;;;;;3.40;2.85;;;20.10;30.90;;;;;;4993502;28;20453;-59
2022/03/09 07:26:41;;;;;;;3.35;2.75;;;20.10;30.80;;;;;;4994841;28;20082;-59
2022/03/09 07:29:13;;;;;;;3.30;3.00;;;20.10;30.90;;;;;;4994758;28;20064;-58
2022/03/09 07:31:39;;;;;;;3.38;2.85;;;20.10;30.90;;;;;;4993148;28;20077;-59
2022/03/09 07:34:05;;;;;;;3.10;2.83;;;20.20;31.00;;;;;;4991299;28;20045;-59
2022/03/09 07:36:31;;;;;;;3.50;2.85;;;20.20;31.00;;;;;;4993091;28;20038;-59
2022/03/09 07:38:56;;;;;;;3.53;2.80;;;20.20;31.20;;;;;;4995630;28;20045;-59
2022/03/09 07:41:22;;;;;;;2.70;2.50;;;20.20;31.30;;;;;;4993209;28;20143;-59
2022/03/09 07:43:48;;;;;;;2.90;2.70;;;20.20;31.50;;;;;;4991671;28;20034;-59
2022/03/09 07:46:14;;;;;;;3.28;2.38;;;20.20;31.70;;;;;;4989121;28;20061;-59
2022/03/09 07:48:39;;;;;;;2.80;2.60;;;20.20;31.80;;;;;;4993735;28;20060;-60
2022/03/09 07:51:05;;;;;;;2.72;2.53;;;20.20;31.90;;;;;;5007591;28;20101;-59
2022/03/09 07:53:30;;;;;;;3.33;2.70;;;20.20;32.00;;;;;;4989217;28;20049;-60
2022/03/09 07:55:56;;;;;;;3.20;2.70;;;20.20;32.10;;;;;;4994308;28;20064;-59
2022/03/09 07:58:23;;;;;;;2.80;2.58;;;20.20;32.20;;;;;;5006803;28;20489;-60
2022/03/09 08:00:48;;;;;;;4.82;2.30;;;20.20;32.20;;;;;;4989858;28;20053;-59
2022/03/09 08:03:14;;;;;;;4.35;2.55;;;20.20;32.20;;;;;;4992265;28;20045;-60
2022/03/09 08:05:39;;;;;;;2.83;2.63;;;20.30;32.30;;;;;;5001013;28;20057;-60
2022/03/09 08:08:05;;;;;;;2.78;2.22;;;20.20;32.20;;;;;;4992666;28;20072;-59
2022/03/09 08:10:30;;;;;;;4.63;2.75;;;20.30;32.30;;;;;;4992234;28;20967;-59
2022/03/09 08:12:56;;;;;;;3.10;2.80;;;20.30;32.30;;;;;;4976686;28;20125;-59
2022/03/09 08:15:22;;;;;;;3.83;2.95;;;20.30;32.20;;;;;;4990689;28;20107;-59
2022/03/09 08:17:47;;;;;;;3.35;2.97;;;20.30;32.40;;;;;;4992712;28;20061;-59
2022/03/09 08:20:13;;;;;;;2.47;2.28;;;20.30;32.30;;;;;;4993053;28;20470;-59
2022/03/09 08:22:39;;;;;;;3.00;2.70;;;20.30;32.40;;;;;;4995164;28;20131;-61
2022/03/09 08:25:06;;;;;;;3.17;2.58;;;20.30;32.40;;;;;;4995435;28;20057;-60
2022/03/09 08:27:32;;;;;;;3.20;2.40;;;20.30;32.50;;;;;;4993867;28;20049;-59
2022/03/09 08:29:58;;;;;;;3.10;2.53;;;20.30;32.50;;;;;;4991018;28;20129;-59
2022/03/09 08:32:23;;;;;;;3.25;2.80;;;20.30;32.60;;;;;;4976775;28;20132;-59
2022/03/09 08:34:49;;;;;;;4.22;2.10;;;20.30;32.70;;;;;;4993004;28;20516;-60
2022/03/09 08:37:15;;;;;;;3.90;2.60;;;20.40;32.80;;;;;;4994477;28;20046;-59
2022/03/09 08:39:43;;;;;;;2.47;2.22;;;20.40;32.90;;;;;;4998409;28;20056;-60
2022/03/09 08:42:10;;;;;;;3.35;2.72;;;20.40;32.90;;;;;;4989965;28;20046;-59
2022/03/09 08:44:35;;;;;;;3.53;2.25;;;20.40;33.00;;;;;;4991588;28;20545;-59
2022/03/09 08:47:01;;;;;;;3.33;2.40;;;20.40;33.10;;;;;;4993237;28;20046;-60
2022/03/09 08:49:27;;;;;;;3.13;2.45;;;20.40;33.20;;;;;;4992542;28;20061;-59
2022/03/09 08:51:53;;;;;;;3.40;2.60;;;20.40;33.10;;;;;;4992065;28;20379;-59
2022/03/09 08:54:18;;;;;;;2.58;2.17;;;20.40;33.20;;;;;;4975039;28;20053;-59
2022/03/09 08:56:44;;;;;;;2.97;2.33;;;20.40;33.20;;;;;;4993570;28;20660;-60
2022/03/09 08:59:09;;;;;;;3.15;2.80;;;20.40;33.20;;;;;;4992163;28;20072;-59
2022/03/09 09:01:35;;;;;;;3.78;2.38;;;20.40;33.30;;;;;;4992080;28;20089;-59
2022/03/09 09:04:01;;;;;;;2.33;2.13;;;20.40;33.30;;;;;;4992927;28;20080;-59
2022/03/09 09:06:26;;;;;;;4.93;2.53;;;20.40;33.40;;;;;;4990547;28;20061;-60
2022/03/09 09:08:52;;;;;;;2.72;2.40;;;20.40;33.50;;;;;;4992045;28;20136;-60
2022/03/09 09:11:17;;;;;;;6.15;2.58;;;20.50;33.60;;;;;;4990174;28;20045;-60
2022/03/09 09:13:43;;;;;;;2.80;2.50;;;20.50;33.70;;;;;;4993609;28;20136;-60
2022/03/09 09:16:09;;;;;;;2.60;2.40;;;20.50;34.00;;;;;;4993591;28;20077;-60
2022/03/09 09:18:34;;;;;;;2.60;2.40;;;20.50;34.10;;;;;;4991608;28;20089;-59
2022/03/09 09:21:00;;;;;;;5.57;2.15;;;20.50;34.50;;;;;;4988829;28;20466;-59
2022/03/09 09:23:26;;;;;;;6.03;2.75;;;20.50;35.00;;;;;;4989088;28;20107;-60
2022/03/09 09:25:52;;;;;;;5.25;2.20;;;20.50;35.20;;;;;;4989313;28;20405;-59
2022/03/09 09:28:17;;;;;;;4.82;2.63;;;20.60;35.40;;;;;;4991810;28;20168;-59
2022/03/09 09:30:43;;;;;;;4.45;2.45;;;20.60;35.40;;;;;;4992665;28;20053;-59
2022/03/09 09:33:09;;;;;;;6.72;2.65;;;20.60;35.50;;;;;;4990077;28;20706;-59
2022/03/09 09:35:35;;;;;;;5.55;2.78;;;20.70;35.30;;;;;;4993279;28;20110;-59
2022/03/09 09:38:06;;;;;;;3.53;2.10;;;20.70;35.20;;;;;;4991617;28;20145;-59
2022/03/09 09:40:45;;;;;;;3.65;2.30;;;20.70;35.10;;;;;;4979347;28;20168;-59
2022/03/09 09:43:15;;;;;;;4.80;2.47;;;20.70;35.00;;;;;;4997511;28;20058;-58
2022/03/09 09:45:42;;;;;;;3.42;2.20;;;20.70;34.90;;;;;;4991293;28;20046;-58
2022/03/09 09:48:09;;;;;;;4.70;2.40;;;20.70;34.80;;;;;;4989403;28;20954;-59
2022/03/09 09:50:35;;;;;;;2.50;2.20;;;20.70;34.70;;;;;;4994200;28;20089;-59
2022/03/09 09:53:06;;;;;;;3.00;2.28;;;20.70;34.60;;;;;;4989500;28;20568;-59
2022/03/09 09:55:32;;;;;;;4.10;2.42;;;20.70;34.50;;;;;;4993634;28;20082;-59
2022/03/09 09:57:59;;;;;;;3.47;2.20;;;20.70;34.40;;;;;;4995016;28;20053;-59
2022/03/09 10:00:25;;;;;;;4.13;2.60;;;20.70;34.30;;;;;;4996108;28;20053;-58
2022/03/09 10:02:51;;;;;;;3.63;2.50;;;20.70;34.30;;;;;;4996261;28;20085;-59
2022/03/09 10:05:18;;;;;;;2.50;2.25;;;20.70;34.30;;;;;;4995143;28;20108;-59
2022/03/09 10:08:02;;;;;;;2.35;2.10;;;20.70;34.30;;;;;;4992011;28;20050;-59
2022/03/09 10:10:33;;;;;;;2.53;2.13;;;20.70;34.20;;;;;;4996824;28;20569;-59
2022/03/09 10:13:11;;;;;;;3.03;2.10;;;20.70;34.20;;;;;;4993588;28;20054;-58
2022/03/09 10:15:37;;;;;;;3.00;2.50;;;20.70;34.10;;;;;;4994362;28;20084;-58
2022/03/09 10:18:32;;;;;;;3.28;2.50;;;20.70;34.10;;;;;;4994716;28;20078;-58
2022/03/09 10:21:08;;;;;;;2.58;2.33;;;20.70;34.10;;;;;;4975755;28;20101;-59
2022/03/09 10:23:49;;;;;;;3.50;2.38;;;20.80;34.20;;;;;;4995036;28;20053;-58
2022/03/09 10:26:15;;;;;;;;;;;20.80;34.10;;;;;;4997633;28;20053;-59
2022/03/09 10:29:07;;;;;;;2.75;2.33;;;20.80;34.00;;;;;;4993144;28;19999;-59
2022/03/09 10:31:43;;;;;;;3.83;2.30;;;20.70;34.00;;;;;;4997485;28;20050;-58
2022/03/09 10:34:16;;;;;;;3.67;2.30;;;20.80;34.00;;;;;;4992600;28;20050;-58
2022/03/09 10:36:57;;;;;;;4.13;2.70;;;20.80;34.00;;;;;;4992508;28;20076;-59
2022/03/09 10:39:26;;;;;;;2.40;2.20;;;20.80;34.00;;;;;;4997247;28;20050;-58
2022/03/09 10:41:52;;;;;;;3.50;2.50;;;20.80;33.90;;;;;;4995186;28;20042;-58
2022/03/09 10:44:17;;;;;;;2.92;2.40;;;20.80;33.90;;;;;;4996257;28;20544;-59
2022/03/09 10:46:48;;;;;;;4.35;2.50;;;20.80;33.90;;;;;;4995163;28;20045;-59
2022/03/09 10:49:18;;;;;;;2.88;2.50;;;20.80;33.80;;;;;;4991490;28;20065;-58
2022/03/09 10:51:51;;;;;;;3.15;2.72;;;20.90;33.80;;;;;;4996492;28;20046;-58
2022/03/09 10:54:22;;;;;;;4.25;2.75;;;20.80;33.70;;;;;;4993782;28;20076;-59
2022/03/09 10:56:49;;;;;;;3.55;2.50;;;20.80;33.70;;;;;;4995104;28;20050;-59
2022/03/09 10:59:26;;;;;;;3.63;2.85;;;20.80;33.70;;;;;;4991672;28;20121;-59
2022/03/09 11:02:09;;;;;;;3.60;2.80;;;20.80;33.60;;;;;;4993906;28;20784;-58
2022/03/09 11:04:36;;;;;;;3.75;2.67;;;20.90;33.60;;;;;;4995714;28;20048;-59
2022/03/09 11:07:03;;;;;;;2.85;2.47;;;20.80;33.60;;;;;;4995851;28;20573;-59
2022/03/09 11:09:29;;;;;;;3.53;2.60;;;20.90;33.60;;;;;;4995506;28;20168;-58
2022/03/09 11:11:55;;;;;;;3.45;2.75;;;20.80;33.50;;;;;;5008852;28;20050;-59
2022/03/09 11:14:25;;;;;;;3.30;2.40;;;20.90;33.60;;;;;;4996475;28;20072;-59
2022/03/09 11:16:51;;;;;;;4.43;2.30;;;20.90;33.50;;;;;;4992104;28;20129;-59
2022/03/09 11:19:18;;;;;;;3.20;2.60;;;20.90;33.50;;;;;;4995253;28;20064;-60
2022/03/09 11:21:43;;;;;;;3.78;2.47;;;20.90;33.50;;;;;;4996856;28;20052;-59
2022/03/09 11:24:14;;;;;;;2.50;2.30;;;20.90;33.50;;;;;;4993384;28;20046;-59
2022/03/09 11:27:02;;;;;;;2.70;2.25;;;20.90;33.50;;;;;;4995488;28;20318;-59
2022/03/09 11:29:35;;;;;;;2.40;2.20;;;20.90;33.40;;;;;;4994983;28;20119;-59
2022/03/09 11:32:02;;;;;;;3.13;2.22;;;20.90;33.40;;;;;;4993586;28;20050;-59
2022/03/09 11:34:33;;;;;;;2.42;2.22;;;20.90;33.50;;;;;;4993751;28;20100;-59
2022/03/09 11:37:08;;;;;;;3.75;2.53;;;20.90;33.50;;;;;;4993895;28;20056;-59
2022/03/09 11:39:37;;;;;;;3.83;2.80;;;20.90;33.50;;;;;;4992856;28;20139;-59
2022/03/09 11:42:21;;;;;;;5.05;2.65;;;20.90;33.60;;;;;;4994887;28;20048;-59
2022/03/09 11:44:54;;;;;;;4.38;2.40;;;20.90;33.70;;;;;;4995884;28;20042;-59
2022/03/09 11:47:20;;;;;;;3.67;2.60;;;20.90;33.70;;;;;;4994106;28;20046;-59
2022/03/09 11:49:46;;;;;;;3.25;2.50;;;20.90;34.60;;;;;;4992587;28;20421;-59
2022/03/09 11:52:27;;;;;;;3.90;2.78;;;20.90;33.80;;;;;;4994161;28;20058;-59
2022/03/09 11:54:59;;;;;;;;;;;21.00;33.80;;;;;;4993626;28;20092;-58
2022/03/09 11:57:48;;;;;;;3.30;2.28;;;20.90;33.80;;;;;;4998021;28;19933;-59
2022/03/09 12:00:16;;;;;;;3.00;2.38;;;20.90;33.80;;;;;;4988943;28;20462;-59
2022/03/09 12:02:47;;;;;;;3.08;2.50;;;20.90;34.60;;;;;;4993522;28;20054;-59
2022/03/09 12:05:31;;;;;;;4.07;2.47;;;20.90;33.70;;;;;;4994145;28;20050;-59
2022/03/09 12:07:58;;;;;;;5.07;2.80;;;20.90;33.70;;;;;;4993516;28;20060;-59
2022/03/09 12:10:42;;;;;;;4.57;2.33;;;21.00;33.80;;;;;;4995871;28;20478;-59
2022/03/09 12:13:08;;;;;;;4.70;2.70;;;20.90;33.60;;;;;;4990384;28;20050;-59
2022/03/09 12:16:00;;;;;;;2.83;2.53;;;20.90;33.70;;;;;;4991507;28;20481;-59
2022/03/09 12:18:42;;;;;;;2.85;2.55;;;20.90;33.80;;;;;;4994188;28;20054;-59
2022/03/09 12:21:10;;;;;;;3.97;2.67;;;20.90;33.70;;;;;;4991740;28;20123;-59
2022/03/09 12:24:02;;;;;;;2.60;2.17;;;21.00;33.80;;;;;;5007363;28;20042;-58
2022/03/09 12:26:47;;;;;;;3.03;2.67;;;21.00;33.80;;;;;;4985971;28;20046;-59
2022/03/09 12:29:23;;;;;;;2.35;2.15;;;21.00;33.80;;;;;;4989947;28;20065;-59
2022/03/09 12:31:59;;;;;;;3.08;2.38;;;21.00;33.90;;;;;;4992863;28;20080;-58
2022/03/09 12:34:27;;;;;;;5.72;2.55;;;21.00;33.80;;;;;;4991805;28;20736;-59
2022/03/09 12:36:53;;;;;;;3.50;2.72;;;21.00;33.80;;;;;;4991301;28;20154;-60
2022/03/09 12:39:19;;;;;;;3.03;2.20;;;21.00;33.80;;;;;;4979369;28;20073;-59
2022/03/09 12:41:51;;;;;;;2.88;2.58;;;21.00;33.80;;;;;;4988969;28;20057;-59
2022/03/09 12:44:19;;;;;;;3.95;2.50;;;21.00;33.70;;;;;;4997512;28;20120;-59
2022/03/09 12:46:50;;;;;;;3.15;2.60;;;21.00;33.70;;;;;;4993844;28;20853;-59
2022/03/09 12:49:20;;;;;;;3.75;2.28;;;21.00;33.80;;;;;;4991616;28;20127;-59
2022/03/09 12:51:55;;;;;;;2.88;2.40;;;21.00;33.70;;;;;;4995354;28;20133;-59